Time;durP1;ratioP1;P1;durP2;ratioP2;P2;SDS_P1;SDS_P2;PMS_P1;PMS_P2;Temp;Humidity;BMP_temperature;BMP_pressure;BME280_temperature;BME280_humidity;BME280_pressure;Samples;Min_cycle;Max_cycle;Signal;HPM_P1;HPM_P2
2022/04/14 00:00:01;;;;;;;6.35;3.33;;;;;;;10.01;35.75;101647.19;5077572;28;20412;-58
2022/04/14 00:02:28;;;;;;;6.00;3.13;;;;;;;10.04;36.02;101646.88;5087894;28;20444;-58
2022/04/14 00:04:55;;;;;;;6.20;3.55;;;;;;;10.04;35.54;101646.03;5076410;28;20426;-59
2022/04/14 00:07:22;;;;;;;4.00;3.08;;;;;;;10.09;35.50;101641.16;5083072;28;20454;-58
2022/04/14 00:09:49;;;;;;;4.13;2.90;;;;;;;10.08;35.04;101642.13;5083492;28;21056;-57
2022/04/14 00:12:16;;;;;;;6.60;2.97;;;;;;;10.11;35.08;101636.53;5089399;28;20448;-58
2022/04/14 00:14:43;;;;;;;4.13;3.08;;;;;;;10.09;35.92;101633.22;5074533;28;20440;-57
2022/04/14 00:17:13;;;;;;;4.50;3.10;;;;;;;10.11;35.99;101645.31;5089951;28;20801;-58
2022/04/14 00:19:40;;;;;;;5.70;2.90;;;;;;;10.13;36.19;101650.47;5080147;28;21025;-57
2022/04/14 00:22:07;;;;;;;5.38;3.08;;;;;;;9.99;35.95;101665.00;5085551;28;20464;-57
2022/04/14 00:24:34;;;;;;;6.13;3.33;;;;;;;10.00;36.29;101673.81;5073637;28;20457;-58
2022/04/14 00:27:01;;;;;;;5.03;3.40;;;;;;;9.95;36.23;101668.94;5072078;28;20453;-58
2022/04/14 00:29:28;;;;;;;4.75;3.10;;;;;;;10.02;36.32;101666.56;5072663;28;20462;-57
2022/04/14 00:31:55;;;;;;;5.28;3.38;;;;;;;10.01;35.88;101667.50;5089325;28;20436;-57
2022/04/14 00:34:23;;;;;;;4.88;3.00;;;;;;;9.94;36.06;101659.31;5074002;28;20809;-57
2022/04/14 00:36:50;;;;;;;6.93;3.30;;;;;;;9.95;36.23;101668.94;5059125;28;20425;-58
2022/04/14 00:39:17;;;;;;;5.30;3.20;;;;;;;9.85;36.28;101661.00;5076760;28;20459;-58
2022/04/14 00:41:44;;;;;;;7.07;3.10;;;;;;;9.77;36.37;101661.69;5061127;28;20445;-58
2022/04/14 00:46:46;;;;;;;4.53;3.00;;;;;;;9.64;36.58;101671.75;5103926;27;20502;-58
2022/04/14 00:50:33;;;;;;;4.50;3.50;;;;;;;9.63;36.72;101680.66;5107488;27;20434;-59
2022/04/14 00:53:00;;;;;;;7.40;3.97;;;;;;;9.58;37.07;101674.97;5106511;28;20423;-60
2022/04/14 00:55:27;;;;;;;5.95;3.30;;;;;;;9.53;37.40;101672.72;5106911;28;20937;-59
2022/04/14 00:57:54;;;;;;;5.95;3.90;;;;;;;9.59;37.19;101675.81;5107207;28;20443;-58
2022/04/14 01:00:21;;;;;;;5.72;3.80;;;;;;;9.56;37.46;101671.59;5107143;28;20418;-58
2022/04/14 01:02:48;;;;;;;6.60;4.20;;;;;;;9.58;37.32;101674.97;5106383;28;20436;-58
2022/04/14 01:05:16;;;;;;;6.63;4.38;;;;;;;9.52;37.68;101676.34;5106662;28;20444;-58
2022/04/14 01:07:45;;;;;;;5.93;3.80;;;;;;;9.49;37.47;101676.63;5107067;28;20546;-59
2022/04/14 01:10:12;;;;;;;7.00;3.80;;;;;;;9.53;37.53;101680.66;5106814;28;20421;-58
2022/04/14 01:12:39;;;;;;;6.75;3.90;;;;;;;9.51;38.00;101679.16;5106178;28;20420;-58
2022/04/14 01:15:12;;;;;;;8.00;4.40;;;;;;;9.48;37.60;101672.31;5106791;28;20445;-58
2022/04/14 01:17:40;;;;;;;8.40;4.28;;;;;;;9.38;37.66;101664.38;5106499;28;20790;-59
2022/04/14 01:20:08;;;;;;;6.38;3.90;;;;;;;9.33;37.40;101676.34;5106480;28;20874;-58
2022/04/14 01:22:37;;;;;;;8.07;4.13;;;;;;;9.29;37.88;101683.72;5106474;28;20412;-58
2022/04/14 01:25:06;;;;;;;6.90;4.20;;;;;;;9.31;37.58;101687.06;5106246;28;20436;-58
2022/04/14 01:27:33;;;;;;;6.90;4.70;;;;;;;9.27;37.53;101690.94;5106137;28;20839;-60
2022/04/14 01:30:01;;;;;;;6.25;4.32;;;;;;;9.21;37.83;101701.25;5106455;28;20428;-59
2022/04/14 01:32:28;;;;;;;7.25;4.15;;;;;;;9.24;37.54;101703.63;5105955;28;20442;-58
2022/04/14 01:34:55;;;;;;;6.18;4.10;;;;;;;9.22;38.00;101709.06;5090601;28;20409;-58
2022/04/14 01:37:22;;;;;;;8.55;4.43;;;;;;;9.15;37.93;101706.13;5106157;28;20427;-59
2022/04/14 01:39:49;;;;;;;6.80;4.40;;;;;;;9.10;37.64;101703.03;5106029;28;20945;-59
2022/04/14 01:42:17;;;;;;;6.20;4.40;;;;;;;9.10;38.11;101699.56;5106337;28;20424;-59
2022/04/14 01:44:44;;;;;;;6.47;5.20;;;;;;;9.10;37.97;101703.03;5106080;28;20409;-59
2022/04/14 01:47:11;;;;;;;7.90;4.68;;;;;;;9.11;37.74;101701.22;5105709;28;20419;-61
2022/04/14 01:49:38;;;;;;;7.32;4.50;;;;;;;9.05;37.51;101701.78;5105711;28;20428;-59
2022/04/14 01:52:06;;;;;;;6.32;4.72;;;;;;;9.07;37.53;101697.19;5105639;28;20445;-58
2022/04/14 01:54:33;;;;;;;6.40;4.68;;;;;;;9.04;37.29;101692.16;5105641;28;20444;-58
2022/04/14 01:59:07;;;;;;;6.47;4.37;;;;;;;9.06;36.74;101695.53;5085533;28;20410;-58
2022/04/14 02:01:34;;;;;;;5.72;4.22;;;;;;;8.95;37.34;101694.66;5078029;28;20420;-58
2022/04/14 02:04:02;;;;;;;6.83;4.50;;;;;;;8.93;37.02;101685.16;5074992;28;20807;-58
2022/04/14 02:06:29;;;;;;;6.80;4.27;;;;;;;8.85;37.00;101685.84;5073526;28;20419;-58
2022/04/14 02:08:57;;;;;;;5.82;3.60;;;;;;;8.75;37.27;101690.28;5069537;28;20462;-60
2022/04/14 02:11:24;;;;;;;4.18;3.17;;;;;;;8.68;37.19;101690.00;5084923;28;20993;-58
2022/04/14 02:13:51;;;;;;;5.00;3.47;;;;;;;8.74;37.16;101689.44;5085303;28;21643;-58
2022/04/14 02:16:19;;;;;;;7.47;3.40;;;;;;;8.73;37.38;101690.44;5071803;28;20786;-58
2022/04/14 02:18:46;;;;;;;6.43;3.80;;;;;;;8.72;37.66;101690.56;5078801;28;20469;-58
2022/04/14 02:21:13;;;;;;;6.87;4.00;;;;;;;8.63;37.45;101680.78;5071951;28;20418;-58
2022/04/14 02:23:40;;;;;;;5.88;3.58;;;;;;;8.56;37.77;101691.88;5076642;28;20411;-59
2022/04/14 02:26:07;;;;;;;5.07;3.53;;;;;;;8.58;37.40;101681.19;5079383;28;20453;-58
2022/04/14 02:28:34;;;;;;;7.00;3.60;;;;;;;8.57;37.38;101683.00;5069295;28;20444;-58
2022/04/14 02:31:01;;;;;;;5.72;3.60;;;;;;;8.62;37.24;101687.84;5082553;28;20423;-58
2022/04/14 02:33:50;;;;;;;5.90;3.50;;;;;;;8.55;37.35;101682.28;5095311;27;20406;-58
2022/04/14 02:36:17;;;;;;;6.00;3.70;;;;;;;8.55;37.04;101681.44;5072555;28;20469;-60
2022/04/14 02:38:45;;;;;;;6.88;4.57;;;;;;;8.56;36.71;101683.94;5083083;28;20422;-57
2022/04/14 02:41:12;;;;;;;8.80;4.70;;;;;;;8.53;36.96;101684.19;5072116;28;20448;-58
2022/04/14 02:43:39;;;;;;;7.25;4.20;;;;;;;8.42;37.33;101693.06;5077494;28;20794;-58
2022/04/14 02:47:59;;;;;;;6.17;3.87;;;;;;;8.46;37.04;101687.50;5094453;27;20482;-58
2022/04/14 02:50:26;;;;;;;8.80;4.30;;;;;;;8.42;37.24;101695.69;5084250;28;20449;-58
2022/04/14 02:52:54;;;;;;;9.05;4.30;;;;;;;8.37;37.10;101703.19;5069816;28;20422;-58
2022/04/14 02:55:21;;;;;;;7.38;4.38;;;;;;;8.36;37.14;101687.44;5080011;28;20917;-58
2022/04/14 02:57:49;;;;;;;7.10;4.55;;;;;;;8.29;37.08;101696.88;5076449;28;20509;-58
2022/04/14 03:00:17;;;;;;;6.97;4.43;;;;;;;8.20;37.40;101704.59;5072943;28;20826;-58
2022/04/14 03:02:44;;;;;;;7.25;4.47;;;;;;;8.15;37.35;101698.03;5077949;28;20442;-58
2022/04/14 03:05:13;;;;;;;11.32;8.88;;;;;;;8.12;37.64;101707.06;5071177;28;20449;-59
2022/04/14 03:09:57;;;;;;;13.90;6.70;;;;;;;8.00;37.77;101701.00;5094682;27;20919;-57
2022/04/14 03:12:24;;;;;;;8.35;5.40;;;;;;;7.92;38.46;101702.59;5076061;28;20453;-57
2022/04/14 03:14:51;;;;;;;7.33;5.80;;;;;;;7.91;38.14;101700.94;5069327;28;20499;-57
2022/04/14 03:17:18;;;;;;;8.88;6.85;;;;;;;7.94;38.62;101703.31;5072026;28;20871;-58
2022/04/14 03:19:45;;;;;;;10.97;5.10;;;;;;;7.94;38.80;101700.66;5085203;28;20418;-57
2022/04/14 03:22:12;;;;;;;9.63;6.93;;;;;;;7.79;39.08;101711.53;5077152;28;20464;-58
2022/04/14 03:26:03;;;;;;;7.37;5.03;;;;;;;7.64;39.61;101715.44;5112309;27;20458;-59
2022/04/14 03:28:30;;;;;;;6.40;5.00;;;;;;;7.79;39.08;101719.44;5106995;28;20985;-59
2022/04/14 03:30:57;;;;;;;9.80;5.03;;;;;;;7.81;39.00;101722.81;5106361;28;20453;-60
2022/04/14 03:33:24;;;;;;;10.85;5.03;;;;;;;7.74;39.07;101712.88;5106802;28;20416;-58
2022/04/14 03:35:51;;;;;;;14.98;7.80;;;;;;;7.79;38.77;101731.81;5107117;28;20459;-59
2022/04/14 03:38:18;;;;;;;8.50;5.30;;;;;;;7.81;38.88;101733.38;5106633;28;20443;-60
2022/04/14 03:40:45;;;;;;;9.52;6.30;;;;;;;7.78;39.33;101738.91;5105762;28;20858;-58
2022/04/14 03:43:13;;;;;;;11.23;5.68;;;;;;;7.79;39.12;101743.22;5107202;28;20451;-59
2022/04/14 03:45:40;;;;;;;10.68;5.60;;;;;;;7.82;39.47;101739.50;5106835;28;20933;-59
2022/04/14 03:48:07;;;;;;;8.53;5.00;;;;;;;7.84;39.09;101745.47;5106891;28;20460;-59
2022/04/14 03:50:34;;;;;;;8.03;5.10;;;;;;;7.84;39.43;101748.13;5106841;28;20408;-59
2022/04/14 03:53:01;;;;;;;9.10;5.20;;;;;;;7.84;39.36;101748.13;5107336;28;20439;-58
2022/04/14 03:55:28;;;;;;;9.43;5.97;;;;;;;7.85;39.61;101747.16;5106709;28;20408;-59
2022/04/14 03:57:55;;;;;;;8.57;5.40;;;;;;;7.90;39.33;101755.53;5106917;28;20404;-58
2022/04/14 04:00:24;;;;;;;9.18;6.43;;;;;;;7.99;39.79;101756.56;5107099;28;20436;-60
2022/04/14 04:02:50;;;;;;;8.25;5.65;;;;;;;8.12;39.63;101759.03;5106582;28;20415;-59
2022/04/14 04:05:17;;;;;;;8.20;5.80;;;;;;;8.24;39.51;101761.47;5106589;28;20758;-59
2022/04/14 04:07:45;;;;;;;8.75;5.65;;;;;;;8.33;39.61;101761.69;5106450;28;20412;-58
2022/04/14 04:10:12;;;;;;;12.80;6.78;;;;;;;8.47;38.98;101755.25;5106090;28;20981;-58
2022/04/14 04:12:39;;;;;;;11.77;6.15;;;;;;;8.51;38.95;101756.66;5104330;28;20408;-61
2022/04/14 04:15:07;;;;;;;13.15;6.18;;;;;;;8.69;38.70;101763.00;5104037;28;20499;-60
2022/04/14 04:17:35;;;;;;;14.98;6.05;;;;;;;8.90;38.31;101756.88;5105319;28;20455;-59
2022/04/14 04:20:02;;;;;;;14.38;6.03;;;;;;;9.02;37.61;101747.88;5105696;28;20451;-60
2022/04/14 04:22:29;;;;;;;10.55;6.47;;;;;;;9.16;37.73;101759.84;5105776;28;20465;-59
2022/04/14 04:24:57;;;;;;;8.70;6.20;;;;;;;9.35;37.42;101746.69;5105659;28;20428;-59
2022/04/14 04:27:24;;;;;;;11.05;6.82;;;;;;;9.62;36.90;101750.47;5104064;28;20763;-62
2022/04/14 04:29:51;;;;;;;13.98;7.15;;;;;;;9.81;37.11;101754.94;5103833;28;20910;-62
2022/04/14 04:32:18;;;;;;;12.52;7.32;;;;;;;10.06;36.60;101756.19;5105102;28;20437;-62
2022/04/14 04:34:46;;;;;;;11.20;6.70;;;;;;;10.33;36.11;101757.28;5104912;28;20925;-62
2022/04/14 04:37:13;;;;;;;12.02;7.90;;;;;;;10.58;35.39;101770.91;5092576;28;20410;-62
2022/04/14 04:39:40;;;;;;;12.70;6.75;;;;;;;10.88;35.34;101775.97;5091750;28;20405;-62
2022/04/14 04:42:08;;;;;;;12.90;7.60;;;;;;;11.11;34.94;101786.22;5045259;28;20415;-62
2022/04/14 04:44:35;;;;;;;25.55;13.48;;;;;;;11.35;34.62;101776.88;5058322;28;20482;-62
2022/04/14 04:47:02;;;;;;;15.25;9.00;;;;;;;11.59;33.83;101773.63;5051908;28;20440;-62
2022/04/14 04:49:28;;;;;;;12.52;6.60;;;;;;;11.86;33.63;101778.88;5051694;28;20448;-62
2022/04/14 04:51:59;;;;;;;13.77;6.63;;;;;;;12.14;32.77;101778.81;5051765;28;20497;-61
2022/04/14 04:54:27;;;;;;;17.48;6.70;;;;;;;12.38;32.24;101778.16;5051130;28;20914;-61
2022/04/14 04:56:54;;;;;;;12.60;6.05;;;;;;;12.55;32.12;101784.44;5051083;28;20487;-62
2022/04/14 04:59:22;;;;;;;17.48;7.18;;;;;;;12.76;31.57;101791.19;5033042;28;20855;-61
2022/04/14 05:01:49;;;;;;;10.25;6.13;;;;;;;13.04;31.33;101794.50;5051545;28;20938;-61
2022/04/14 05:04:15;;;;;;;15.60;6.55;;;;;;;13.33;31.10;101804.78;5051578;28;20814;-61
2022/04/14 05:06:42;;;;;;;12.23;6.28;;;;;;;13.65;30.76;101813.88;5051447;28;21199;-61
2022/04/14 05:09:11;;;;;;;11.25;5.70;;;;;;;13.76;30.37;101816.22;5051251;28;20465;-61
2022/04/14 05:11:38;;;;;;;14.73;6.18;;;;;;;14.08;29.88;101816.41;5049853;28;20464;-61
2022/04/14 05:14:05;;;;;;;9.50;5.80;;;;;;;14.36;29.37;101822.25;5049922;28;20444;-61
2022/04/14 05:16:32;;;;;;;14.63;6.80;;;;;;;14.42;29.44;101818.94;5050295;28;20480;-61
2022/04/14 05:18:59;;;;;;;10.00;6.50;;;;;;;14.86;28.80;101821.22;5049948;28;20991;-62
2022/04/14 05:22:14;;;;;;;10.77;7.15;;;;;;;15.15;28.80;101825.13;5073331;27;20404;-61
2022/04/14 05:24:41;;;;;;;14.77;7.10;;;;;;;15.43;28.57;101821.97;5065967;28;20412;-61
2022/04/14 05:27:08;;;;;;;13.32;7.47;;;;;;;15.65;28.46;101821.19;5065970;28;20454;-61
2022/04/14 05:29:37;;;;;;;11.98;7.55;;;;;;;15.43;28.70;101816.63;5066150;28;20785;-61
2022/04/14 05:32:04;;;;;;;9.93;7.07;;;;;;;15.34;29.12;101817.69;5066247;28;20415;-61
2022/04/14 05:34:32;;;;;;;13.27;7.73;;;;;;;15.52;28.75;101820.94;5066311;28;20469;-61
2022/04/14 05:36:59;;;;;;;12.32;7.50;;;;;;;15.66;28.44;101822.88;5066222;28;20408;-61
2022/04/14 05:39:28;;;;;;;13.10;8.13;;;;;;;15.77;28.53;101818.16;5065926;28;20462;-61
2022/04/14 05:41:55;;;;;;;13.65;8.43;;;;;;;16.08;28.37;101817.25;5065484;28;20501;-61
2022/04/14 05:44:22;;;;;;;14.18;8.10;;;;;;;16.45;28.08;101819.13;5065405;28;20442;-61
2022/04/14 05:46:49;;;;;;;13.23;8.90;;;;;;;16.68;27.75;101812.88;5062522;28;20411;-60
2022/04/14 05:49:16;;;;;;;17.80;9.35;;;;;;;17.03;27.50;101811.31;5065652;28;20440;-61
2022/04/14 05:51:43;;;;;;;15.53;9.33;;;;;;;17.47;27.05;101828.38;5065024;28;20514;-60
2022/04/14 05:54:10;;;;;;;21.43;9.47;;;;;;;17.77;26.73;101821.91;5065096;28;20495;-60
2022/04/14 05:56:38;;;;;;;14.17;8.50;;;;;;;17.81;26.77;101824.19;5064822;28;20447;-60
2022/04/14 05:59:05;;;;;;;13.65;8.80;;;;;;;17.88;26.65;101825.97;5065204;28;20439;-61
2022/04/14 06:01:32;;;;;;;12.20;8.30;;;;;;;17.86;26.71;101825.34;5064842;28;20779;-60
2022/04/14 06:03:59;;;;;;;12.25;8.13;;;;;;;17.67;26.97;101829.41;5065093;28;20416;-60
2022/04/14 06:06:27;;;;;;;15.85;8.93;;;;;;;17.82;26.99;101828.53;5065813;28;20408;-60
2022/04/14 06:08:53;;;;;;;11.30;9.18;;;;;;;17.92;26.80;101819.19;5065389;28;20423;-61
2022/04/14 06:11:20;;;;;;;14.68;9.38;;;;;;;18.35;26.44;101815.66;5064842;28;20945;-60
2022/04/14 06:13:49;;;;;;;13.10;9.07;;;;;;;18.77;25.98;101818.41;5065219;28;20415;-60
2022/04/14 06:16:16;;;;;;;14.48;8.77;;;;;;;18.92;25.78;101821.81;5065580;28;20404;-61
2022/04/14 06:18:43;;;;;;;12.75;9.30;;;;;;;19.12;25.49;101816.53;5065610;28;20416;-61
2022/04/14 06:21:10;;;;;;;12.95;9.20;;;;;;;18.94;25.69;101821.63;5065354;28;20427;-60
2022/04/14 06:23:37;;;;;;;13.43;9.32;;;;;;;19.37;25.33;101827.59;5065179;28;20416;-60
2022/04/14 06:26:04;;;;;;;16.35;9.48;;;;;;;19.43;25.23;101828.69;5065115;28;20416;-61
2022/04/14 06:28:34;;;;;;;15.02;10.02;;;;;;;19.04;25.85;101825.63;5065036;28;20869;-60
2022/04/14 06:31:03;;;;;;;13.13;9.10;;;;;;;19.08;26.05;101832.25;5064975;28;20828;-60
2022/04/14 06:33:30;;;;;;;22.40;10.80;;;;;;;19.45;25.78;101826.63;5052306;28;21513;-59
2022/04/14 06:35:58;;;;;;;15.05;9.52;;;;;;;19.47;25.40;101822.69;5051710;28;20420;-60
2022/04/14 06:38:27;;;;;;;17.90;10.13;;;;;;;19.52;25.36;101815.88;5051406;28;20444;-60
2022/04/14 06:40:54;;;;;;;13.15;8.80;;;;;;;19.98;24.97;101810.59;5048874;28;20984;-60
2022/04/14 06:43:22;;;;;;;13.70;9.03;;;;;;;20.14;24.70;101812.06;5051845;28;20413;-60
2022/04/14 06:45:49;;;;;;;15.10;9.70;;;;;;;20.17;24.60;101811.66;5051543;28;20980;-60
2022/04/14 06:48:17;;;;;;;13.70;9.10;;;;;;;20.20;24.32;101821.19;5050568;28;20519;-60
2022/04/14 06:50:44;;;;;;;13.40;9.00;;;;;;;20.12;24.01;101816.03;5051772;28;20409;-60
2022/04/14 06:53:12;;;;;;;17.17;9.60;;;;;;;20.17;24.20;101824.31;5051617;28;20444;-60
2022/04/14 06:55:41;;;;;;;13.95;8.80;;;;;;;20.21;23.51;101820.97;5051735;28;20431;-60
2022/04/14 06:58:08;;;;;;;14.13;8.57;;;;;;;19.42;24.36;101825.16;5051890;28;20415;-60
2022/04/14 07:00:35;;;;;;;12.90;8.67;;;;;;;19.96;22.88;101823.44;5051642;28;20460;-60
2022/04/14 07:03:02;;;;;;;13.10;7.90;;;;;;;20.32;22.13;101824.91;5051891;28;20444;-60
2022/04/14 07:05:30;;;;;;;11.47;7.17;;;;;;;20.42;21.71;101821.81;5051526;28;20416;-60
2022/04/14 07:07:57;;;;;;;9.05;6.80;;;;;;;20.36;21.37;101831.53;5051531;28;20936;-61
2022/04/14 07:10:27;;;;;;;11.07;7.20;;;;;;;20.18;22.16;101834.03;5051346;28;20448;-61
2022/04/14 07:12:55;;;;;;;10.50;7.70;;;;;;;20.39;22.07;101822.22;5051400;28;20409;-61
2022/04/14 07:15:23;;;;;;;11.20;6.83;;;;;;;20.13;21.95;101836.50;5051126;28;20854;-60
2022/04/14 07:17:50;;;;;;;10.82;6.95;;;;;;;20.23;22.17;101823.47;5051693;28;20444;-60
2022/04/14 07:20:17;;;;;;;11.60;7.07;;;;;;;20.61;21.99;101822.84;5051269;28;20425;-61
2022/04/14 07:22:46;;;;;;;9.30;6.97;;;;;;;21.17;21.46;101824.16;5051461;28;20468;-60
2022/04/14 07:25:15;;;;;;;9.70;6.70;;;;;;;20.33;22.02;101826.59;5051503;28;20455;-61
2022/04/14 07:27:43;;;;;;;11.07;6.90;;;;;;;19.59;23.08;101824.78;5051727;28;20412;-61
2022/04/14 07:30:11;;;;;;;9.18;6.40;;;;;;;19.97;22.37;101822.44;5051374;28;20471;-60
2022/04/14 07:32:40;;;;;;;8.45;6.22;;;;;;;19.88;22.78;101822.81;5051452;28;20470;-60
2022/04/14 07:35:08;;;;;;;12.10;6.97;;;;;;;20.45;22.89;101824.06;5050547;28;20532;-61
2022/04/14 07:37:36;;;;;;;10.55;6.85;;;;;;;20.34;22.16;101822.84;5050902;28;20520;-61
2022/04/14 07:40:06;;;;;;;9.63;7.10;;;;;;;19.82;22.75;101825.28;5051013;28;20436;-61
2022/04/14 07:42:35;;;;;;;10.90;7.28;;;;;;;19.25;23.51;101823.88;5050981;28;20432;-61
2022/04/14 07:45:02;;;;;;;8.63;6.72;;;;;;;18.31;24.72;101828.63;5049594;28;20416;-61
2022/04/14 07:47:29;;;;;;;8.85;6.60;;;;;;;18.47;24.74;101823.97;5050530;28;20421;-61
2022/04/14 07:49:56;;;;;;;9.02;6.82;;;;;;;19.24;23.99;101823.00;5051048;28;20504;-61
2022/04/14 07:52:23;;;;;;;10.95;7.18;;;;;;;19.73;23.70;101818.44;5051017;28;20440;-61
2022/04/14 07:54:50;;;;;;;9.30;6.95;;;;;;;19.88;23.38;101820.13;5050792;28;20440;-61
2022/04/14 07:57:18;;;;;;;10.07;6.90;;;;;;;19.84;23.61;101817.00;5050775;28;20488;-61
2022/04/14 07:59:46;;;;;;;11.73;7.00;;;;;;;20.21;23.37;101820.16;5050426;28;20404;-61
2022/04/14 08:02:12;;;;;;;11.02;6.78;;;;;;;20.53;21.98;101821.19;5049932;28;20507;-61
2022/04/14 08:04:41;;;;;;;9.32;7.10;;;;;;;19.65;23.42;101824.81;5050369;28;20444;-61
2022/04/14 08:07:08;;;;;;;9.82;6.70;;;;;;;19.57;23.85;101825.00;5050189;28;20768;-61
2022/04/14 08:09:35;;;;;;;9.93;6.97;;;;;;;19.20;24.63;101819.06;5050141;28;20440;-61
2022/04/14 08:12:02;;;;;;;8.52;6.63;;;;;;;19.18;24.16;101831.06;5050448;28;20459;-61
2022/04/14 08:14:30;;;;;;;13.80;7.50;;;;;;;18.65;25.17;101828.84;5050123;28;20930;-61
2022/04/14 08:17:03;;;;;;;10.93;7.13;;;;;;;18.72;25.31;101832.41;5050299;28;20422;-61
2022/04/14 08:19:31;;;;;;;10.75;7.05;;;;;;;18.79;25.27;101835.97;5048853;28;20423;-61
2022/04/14 08:21:58;;;;;;;9.70;7.72;;;;;;;18.66;25.67;101839.41;5050279;28;20436;-61
2022/04/14 08:24:25;;;;;;;9.10;6.68;;;;;;;18.51;25.74;101846.72;5049958;28;20421;-62
2022/04/14 08:26:53;;;;;;;12.13;7.05;;;;;;;18.35;25.80;101845.19;5050175;28;20443;-61
2022/04/14 08:29:20;;;;;;;11.60;7.05;;;;;;;18.70;25.67;101842.53;5050278;28;20444;-61
2022/04/14 08:31:48;;;;;;;8.32;7.03;;;;;;;18.81;25.32;101839.31;5050144;28;20416;-61
2022/04/14 08:34:15;;;;;;;10.27;7.35;;;;;;;18.72;25.48;101843.97;5050205;28;20467;-61
2022/04/14 08:36:42;;;;;;;11.25;7.15;;;;;;;18.57;25.66;101843.28;5049789;28;20929;-61
2022/04/14 08:39:09;;;;;;;9.23;6.88;;;;;;;18.60;25.61;101842.03;5050154;28;20755;-61
2022/04/14 08:41:40;;;;;;;9.23;6.82;;;;;;;18.23;25.55;101844.84;5050146;28;21527;-61
2022/04/14 08:44:10;;;;;;;8.63;6.80;;;;;;;18.24;25.46;101837.63;5049659;28;20412;-61
2022/04/14 08:46:39;;;;;;;11.20;6.93;;;;;;;18.41;25.33;101830.97;5049704;28;20450;-61
2022/04/14 08:49:08;;;;;;;10.60;7.50;;;;;;;18.83;25.28;101825.69;5049613;28;20417;-61
2022/04/14 08:51:37;;;;;;;8.43;6.07;;;;;;;19.08;24.55;101831.41;5049852;28;20408;-61
2022/04/14 08:54:05;;;;;;;11.80;6.20;;;;;;;18.66;25.12;101827.84;5049521;28;20417;-61
2022/04/14 08:56:32;;;;;;;10.77;6.50;;;;;;;18.56;25.09;101822.81;5049473;28;20416;-61
2022/04/14 08:59:01;;;;;;;10.73;6.90;;;;;;;18.71;25.29;101818.16;5049736;28;20507;-60
2022/04/14 09:01:28;;;;;;;9.55;6.68;;;;;;;18.38;25.26;101828.66;5049414;28;21132;-61
2022/04/14 09:03:57;;;;;;;9.73;6.57;;;;;;;18.48;25.18;101822.97;5049413;28;20962;-61
2022/04/14 09:06:29;;;;;;;10.50;6.80;;;;;;;18.56;25.22;101816.63;5049289;28;20903;-61
2022/04/14 09:08:57;;;;;;;10.48;7.18;;;;;;;18.83;25.01;101809.59;5049681;28;20409;-61
2022/04/14 09:11:25;;;;;;;10.50;6.80;;;;;;;18.54;25.22;101812.25;5049189;28;20898;-61
2022/04/14 09:13:52;;;;;;;12.13;7.22;;;;;;;18.52;25.61;101811.63;5049293;28;20417;-61
2022/04/14 09:16:20;;;;;;;9.50;6.78;;;;;;;18.43;25.28;101812.81;5049251;28;20417;-61
2022/04/14 09:18:47;;;;;;;9.20;6.73;;;;;;;18.46;25.25;101817.78;5049256;28;20416;-61
2022/04/14 09:21:15;;;;;;;8.80;6.23;;;;;;;18.51;25.40;101809.97;5049345;28;20420;-61
2022/04/14 09:23:51;;;;;;;8.55;6.57;;;;;;;18.35;25.28;101818.34;5049522;28;20502;-61
2022/04/14 09:26:23;;;;;;;7.53;5.97;;;;;;;17.89;25.56;101818.75;5049371;28;20470;-61
2022/04/14 09:29:01;;;;;;;9.10;6.15;;;;;;;18.07;25.43;101811.06;5049476;28;20444;-61
2022/04/14 09:31:29;;;;;;;8.48;6.05;;;;;;;18.15;25.27;101802.06;5049550;28;20427;-61
2022/04/14 09:33:57;;;;;;;7.60;6.00;;;;;;;17.88;25.49;101811.69;5049544;28;20412;-61
2022/04/14 09:36:27;;;;;;;8.50;6.20;;;;;;;17.71;25.62;101803.06;5049092;28;20910;-61
2022/04/14 09:38:57;;;;;;;7.03;6.00;;;;;;;17.86;25.25;101808.38;5048948;28;20417;-61
2022/04/14 09:41:35;;;;;;;7.55;5.63;;;;;;;17.95;25.45;101799.19;5049298;28;20443;-61
2022/04/14 09:44:05;;;;;;;8.52;6.10;;;;;;;18.07;25.19;101804.88;5049083;28;20412;-61
2022/04/14 09:46:32;;;;;;;7.63;5.90;;;;;;;17.93;25.46;101795.88;5049277;28;20446;-61
2022/04/14 09:49:07;;;;;;;6.60;5.77;;;;;;;18.43;24.74;101796.69;5049440;28;20427;-61
2022/04/14 09:51:35;;;;;;;7.53;5.63;;;;;;;18.01;25.21;101786.88;5048897;28;20798;-61
2022/04/14 09:54:14;;;;;;;9.05;5.43;;;;;;;18.49;24.48;101777.13;5049426;28;20412;-61
2022/04/14 09:56:43;;;;;;;9.15;5.72;;;;;;;18.63;24.31;101780.72;5048884;28;20447;-61
2022/04/14 09:59:12;;;;;;;7.50;5.78;;;;;;;18.93;24.00;101777.81;5049159;28;20448;-61
2022/04/14 10:01:39;;;;;;;7.57;5.88;;;;;;;19.17;23.91;101775.63;5048754;28;20428;-61
2022/04/14 10:04:07;;;;;;;8.02;5.70;;;;;;;19.12;23.75;101772.72;5049111;28;20799;-61
2022/04/14 10:06:34;;;;;;;9.73;5.93;;;;;;;19.16;24.03;101766.75;5049134;28;20427;-61
2022/04/14 10:09:03;;;;;;;10.95;6.82;;;;;;;19.21;24.03;101766.13;5052366;28;20413;-61
2022/04/14 10:11:35;;;;;;;8.57;6.38;;;;;;;18.82;24.71;101762.28;5052942;28;20495;-61
2022/04/14 10:14:12;;;;;;;7.70;5.77;;;;;;;19.09;24.03;101758.66;5052853;28;20415;-61
2022/04/14 10:16:40;;;;;;;7.30;5.50;;;;;;;19.40;23.82;101751.09;5053187;28;20436;-61
2022/04/14 10:19:09;;;;;;;8.02;5.40;;;;;;;19.17;23.70;101762.19;5052430;28;20421;-61
2022/04/14 10:21:37;;;;;;;8.80;5.60;;;;;;;18.97;23.92;101754.88;5052356;28;20420;-61
2022/04/14 10:24:05;;;;;;;7.60;5.68;;;;;;;19.14;23.60;101758.06;5052360;28;20412;-61
2022/04/14 10:26:35;;;;;;;8.30;5.63;;;;;;;19.17;23.25;101754.13;5052546;28;20766;-61
2022/04/14 10:29:06;;;;;;;9.00;5.72;;;;;;;18.94;23.52;101749.09;5052494;28;20444;-62
2022/04/14 10:31:36;;;;;;;9.03;5.37;;;;;;;19.10;23.49;101752.28;5083787;28;20417;-61
2022/04/14 10:34:04;;;;;;;6.93;5.10;;;;;;;19.23;23.74;101748.78;5052085;28;20507;-61
2022/04/14 10:36:33;;;;;;;10.82;5.45;;;;;;;19.10;24.01;101757.66;5052378;28;20470;-61
2022/04/14 10:39:01;;;;;;;7.05;5.00;;;;;;;19.03;23.96;101750.56;5052037;28;20420;-61
2022/04/14 10:41:30;;;;;;;7.78;5.53;;;;;;;18.96;24.38;101749.72;5052135;28;20413;-61
2022/04/14 10:44:03;;;;;;;7.88;5.45;;;;;;;19.09;24.33;101749.78;5052292;28;20416;-61
2022/04/14 10:46:32;;;;;;;7.72;5.40;;;;;;;19.04;24.47;101744.19;5052330;28;20420;-61
2022/04/14 10:49:11;;;;;;;7.10;5.03;;;;;;;19.23;24.26;101743.41;5051720;28;20416;-61
2022/04/14 10:51:39;;;;;;;9.00;5.13;;;;;;;19.36;23.96;101750.69;5051799;28;20478;-61
2022/04/14 10:54:07;;;;;;;5.90;4.75;;;;;;;19.05;23.70;101740.44;5051745;28;20448;-61
2022/04/14 10:56:51;;;;;;;7.30;4.60;;;;;;;19.09;23.86;101739.84;5051724;28;21044;-61
2022/04/14 10:59:21;;;;;;;5.35;4.50;;;;;;;19.25;23.36;101738.66;5052015;28;20458;-61
2022/04/14 11:02:02;;;;;;;7.72;4.80;;;;;;;19.29;23.12;101736.41;5051567;28;20412;-61
2022/04/14 11:04:37;;;;;;;5.78;4.25;;;;;;;19.55;23.14;101740.16;5051894;28;20413;-61
2022/04/14 11:07:12;;;;;;;7.03;4.57;;;;;;;19.24;23.27;101733.47;5051508;28;20802;-61
2022/04/14 11:10:00;;;;;;;6.80;4.20;;;;;;;19.38;23.31;101729.78;5051356;28;20408;-62
2022/04/14 11:12:32;;;;;;;5.80;4.05;;;;;;;19.20;23.38;101729.56;5048448;28;20523;-62
2022/04/14 11:15:02;;;;;;;5.82;4.10;;;;;;;19.27;23.17;101714.28;5051765;28;20432;-61
2022/04/14 11:18:04;;;;;;;5.20;3.60;;;;;;;19.43;22.57;101711.19;5051762;28;20495;-62
2022/04/14 11:20:54;;;;;;;5.35;3.85;;;;;;;19.48;21.93;101716.78;5051100;28;20443;-62
2022/04/14 11:23:26;;;;;;;4.97;3.67;;;;;;;19.49;22.08;101709.53;5051450;28;20518;-61
2022/04/14 11:25:54;;;;;;;5.65;3.65;;;;;;;19.51;21.93;101712.84;5051548;28;20420;-62
2022/04/14 11:28:26;;;;;;;5.40;3.33;;;;;;;19.39;21.93;101711.78;5051168;28;20914;-62
2022/04/14 11:30:56;;;;;;;4.80;3.65;;;;;;;19.43;22.09;101699.63;5051384;28;20436;-62
2022/04/14 11:33:27;;;;;;;5.43;3.40;;;;;;;19.63;21.92;101695.06;5051028;28;20914;-62
2022/04/14 11:35:55;;;;;;;6.40;4.00;;;;;;;19.61;22.47;101694.47;5051272;28;20431;-62
2022/04/14 11:38:52;;;;;;;5.97;3.83;;;;;;;19.81;22.66;101688.28;5050930;28;20444;-61
2022/04/14 11:41:38;;;;;;;8.40;3.97;;;;;;;20.04;22.47;101683.28;5051207;28;20423;-61